sensor_id;sensor_type;location;lat;lon;timestamp;P1;durP1;ratioP1;P2;durP2;ratioP2
11064;SDS011;5585;52.530;7.320;2023-08-24T00:01:00;1.65;;;1.35;;
11064;SDS011;5585;52.530;7.320;2023-08-24T00:03:26;2.17;;;1.50;;
11064;SDS011;5585;52.530;7.320;2023-08-24T00:05:53;2.67;;;1.42;;
11064;SDS011;5585;52.530;7.320;2023-08-24T00:08:20;3.55;;;1.50;;
11064;SDS011;5585;52.530;7.320;2023-08-24T00:10:48;2.53;;;1.65;;
11064;SDS011;5585;52.530;7.320;2023-08-24T00:13:15;3.03;;;1.80;;
11064;SDS011;5585;52.530;7.320;2023-08-24T00:15:41;2.60;;;1.75;;
11064;SDS011;5585;52.530;7.320;2023-08-24T00:18:08;4.07;;;2.00;;
11064;SDS011;5585;52.530;7.320;2023-08-24T00:20:34;1.70;;;1.50;;
11064;SDS011;5585;52.530;7.320;2023-08-24T00:23:02;3.17;;;1.70;;
11064;SDS011;5585;52.530;7.320;2023-08-24T00:25:29;3.42;;;1.83;;
11064;SDS011;5585;52.530;7.320;2023-08-24T00:27:57;3.13;;;1.77;;
11064;SDS011;5585;52.530;7.320;2023-08-24T00:30:24;1.85;;;1.70;;
11064;SDS011;5585;52.530;7.320;2023-08-24T00:32:50;4.30;;;1.90;;
11064;SDS011;5585;52.530;7.320;2023-08-24T00:35:17;2.53;;;1.92;;
11064;SDS011;5585;52.530;7.320;2023-08-24T00:37:43;5.50;;;1.77;;
11064;SDS011;5585;52.530;7.320;2023-08-24T00:40:10;2.35;;;1.90;;
11064;SDS011;5585;52.530;7.320;2023-08-24T00:42:37;1.92;;;1.70;;
11064;SDS011;5585;52.530;7.320;2023-08-24T00:45:07;3.53;;;1.85;;
11064;SDS011;5585;52.530;7.320;2023-08-24T00:47:34;2.30;;;1.50;;
11064;SDS011;5585;52.530;7.320;2023-08-24T00:50:01;2.35;;;1.80;;
11064;SDS011;5585;52.530;7.320;2023-08-24T00:52:29;3.30;;;1.92;;
11064;SDS011;5585;52.530;7.320;2023-08-24T00:54:56;2.75;;;1.83;;
11064;SDS011;5585;52.530;7.320;2023-08-24T00:57:23;3.08;;;1.70;;
11064;SDS011;5585;52.530;7.320;2023-08-24T00:59:50;3.72;;;2.20;;
11064;SDS011;5585;52.530;7.320;2023-08-24T01:02:18;4.50;;;2.33;;
11064;SDS011;5585;52.530;7.320;2023-08-24T01:04:45;2.75;;;1.50;;
11064;SDS011;5585;52.530;7.320;2023-08-24T01:07:13;2.28;;;1.60;;
11064;SDS011;5585;52.530;7.320;2023-08-24T01:09:39;1.60;;;1.50;;
11064;SDS011;5585;52.530;7.320;2023-08-24T01:12:08;3.72;;;2.25;;
11064;SDS011;5585;52.530;7.320;2023-08-24T01:14:39;2.78;;;2.22;;
11064;SDS011;5585;52.530;7.320;2023-08-24T01:17:09;4.22;;;2.50;;
11064;SDS011;5585;52.530;7.320;2023-08-24T01:19:42;5.15;;;2.20;;
11064;SDS011;5585;52.530;7.320;2023-08-24T01:22:15;2.75;;;2.10;;
11064;SDS011;5585;52.530;7.320;2023-08-24T01:24:45;3.05;;;2.10;;
11064;SDS011;5585;52.530;7.320;2023-08-24T01:27:17;3.72;;;2.13;;
11064;SDS011;5585;52.530;7.320;2023-08-24T01:29:44;4.07;;;2.20;;
11064;SDS011;5585;52.530;7.320;2023-08-24T01:32:11;2.97;;;2.30;;
11064;SDS011;5585;52.530;7.320;2023-08-24T01:34:38;3.88;;;2.40;;
11064;SDS011;5585;52.530;7.320;2023-08-24T01:37:05;2.95;;;2.50;;
11064;SDS011;5585;52.530;7.320;2023-08-24T01:39:35;3.33;;;2.42;;
11064;SDS011;5585;52.530;7.320;2023-08-24T01:42:03;3.20;;;2.40;;
11064;SDS011;5585;52.530;7.320;2023-08-24T01:44:34;3.50;;;2.10;;
11064;SDS011;5585;52.530;7.320;2023-08-24T01:47:01;3.85;;;2.70;;
11064;SDS011;5585;52.530;7.320;2023-08-24T01:49:29;4.60;;;2.60;;
11064;SDS011;5585;52.530;7.320;2023-08-24T01:51:56;4.15;;;2.45;;
11064;SDS011;5585;52.530;7.320;2023-08-24T01:54:24;3.20;;;2.33;;
11064;SDS011;5585;52.530;7.320;2023-08-24T01:56:50;3.88;;;2.50;;
11064;SDS011;5585;52.530;7.320;2023-08-24T01:59:17;3.05;;;1.98;;
11064;SDS011;5585;52.530;7.320;2023-08-24T02:01:45;2.72;;;1.92;;
11064;SDS011;5585;52.530;7.320;2023-08-24T02:04:12;4.70;;;2.38;;
11064;SDS011;5585;52.530;7.320;2023-08-24T02:06:39;3.88;;;2.67;;
11064;SDS011;5585;52.530;7.320;2023-08-24T02:09:05;4.38;;;2.85;;
11064;SDS011;5585;52.530;7.320;2023-08-24T02:11:32;3.83;;;3.08;;
11064;SDS011;5585;52.530;7.320;2023-08-24T02:13:58;2.70;;;2.50;;
11064;SDS011;5585;52.530;7.320;2023-08-24T02:16:25;3.63;;;2.53;;
11064;SDS011;5585;52.530;7.320;2023-08-24T02:18:53;5.68;;;3.53;;
11064;SDS011;5585;52.530;7.320;2023-08-24T02:21:19;4.50;;;2.80;;
11064;SDS011;5585;52.530;7.320;2023-08-24T02:23:46;4.07;;;2.90;;
11064;SDS011;5585;52.530;7.320;2023-08-24T02:26:15;4.70;;;3.35;;
11064;SDS011;5585;52.530;7.320;2023-08-24T02:28:42;4.68;;;3.22;;
11064;SDS011;5585;52.530;7.320;2023-08-24T02:31:08;4.03;;;3.47;;
11064;SDS011;5585;52.530;7.320;2023-08-24T02:33:35;3.47;;;3.17;;
11064;SDS011;5585;52.530;7.320;2023-08-24T02:36:03;4.82;;;3.08;;
11064;SDS011;5585;52.530;7.320;2023-08-24T02:38:30;3.50;;;2.88;;
11064;SDS011;5585;52.530;7.320;2023-08-24T02:41:00;3.40;;;3.10;;
11064;SDS011;5585;52.530;7.320;2023-08-24T02:43:27;4.75;;;3.40;;
11064;SDS011;5585;52.530;7.320;2023-08-24T02:45:53;3.92;;;3.38;;
11064;SDS011;5585;52.530;7.320;2023-08-24T02:48:20;5.22;;;3.00;;
11064;SDS011;5585;52.530;7.320;2023-08-24T02:50:47;4.03;;;3.35;;
11064;SDS011;5585;52.530;7.320;2023-08-24T02:53:15;5.63;;;4.15;;
11064;SDS011;5585;52.530;7.320;2023-08-24T02:55:41;4.35;;;3.30;;
11064;SDS011;5585;52.530;7.320;2023-08-24T02:58:09;2.63;;;2.40;;
11064;SDS011;5585;52.530;7.320;2023-08-24T03:00:37;3.25;;;2.95;;
11064;SDS011;5585;52.530;7.320;2023-08-24T03:03:04;3.70;;;3.25;;
11064;SDS011;5585;52.530;7.320;2023-08-24T03:05:31;5.57;;;3.45;;
11064;SDS011;5585;52.530;7.320;2023-08-24T03:07:58;5.18;;;3.33;;
11064;SDS011;5585;52.530;7.320;2023-08-24T03:10:26;3.15;;;2.80;;
11064;SDS011;5585;52.530;7.320;2023-08-24T03:12:52;3.22;;;2.78;;
11064;SDS011;5585;52.530;7.320;2023-08-24T03:15:19;5.13;;;3.70;;
11064;SDS011;5585;52.530;7.320;2023-08-24T03:17:46;5.85;;;3.67;;
11064;SDS011;5585;52.530;7.320;2023-08-24T03:20:13;4.88;;;3.60;;
11064;SDS011;5585;52.530;7.320;2023-08-24T03:22:39;4.10;;;3.22;;
11064;SDS011;5585;52.530;7.320;2023-08-24T03:25:07;3.58;;;3.28;;
11064;SDS011;5585;52.530;7.320;2023-08-24T03:27:35;3.42;;;3.00;;
11064;SDS011;5585;52.530;7.320;2023-08-24T03:30:02;4.15;;;3.60;;
11064;SDS011;5585;52.530;7.320;2023-08-24T03:32:29;3.55;;;3.25;;
11064;SDS011;5585;52.530;7.320;2023-08-24T03:34:58;3.90;;;3.42;;
11064;SDS011;5585;52.530;7.320;2023-08-24T03:37:24;4.68;;;3.90;;
11064;SDS011;5585;52.530;7.320;2023-08-24T03:39:54;6.88;;;3.80;;
11064;SDS011;5585;52.530;7.320;2023-08-24T03:42:21;4.90;;;3.97;;
11064;SDS011;5585;52.530;7.320;2023-08-24T03:44:48;5.10;;;4.20;;
11064;SDS011;5585;52.530;7.320;2023-08-24T03:47:15;5.35;;;4.10;;
11064;SDS011;5585;52.530;7.320;2023-08-24T03:49:42;4.60;;;3.28;;
11064;SDS011;5585;52.530;7.320;2023-08-24T03:52:09;3.55;;;3.25;;
11064;SDS011;5585;52.530;7.320;2023-08-24T03:54:35;4.50;;;4.10;;
11064;SDS011;5585;52.530;7.320;2023-08-24T03:57:02;4.60;;;4.20;;
11064;SDS011;5585;52.530;7.320;2023-08-24T03:59:29;4.35;;;3.63;;
11064;SDS011;5585;52.530;7.320;2023-08-24T04:01:56;5.93;;;4.20;;
11064;SDS011;5585;52.530;7.320;2023-08-24T04:04:26;4.70;;;4.30;;
11064;SDS011;5585;52.530;7.320;2023-08-24T04:06:53;4.40;;;3.95;;
11064;SDS011;5585;52.530;7.320;2023-08-24T04:09:20;5.38;;;4.78;;
11064;SDS011;5585;52.530;7.320;2023-08-24T04:11:46;6.45;;;4.10;;
11064;SDS011;5585;52.530;7.320;2023-08-24T04:17:28;4.55;;;3.92;;
11064;SDS011;5585;52.530;7.320;2023-08-24T04:19:54;4.32;;;3.92;;
11064;SDS011;5585;52.530;7.320;2023-08-24T04:22:21;3.63;;;3.33;;
11064;SDS011;5585;52.530;7.320;2023-08-24T04:24:48;3.65;;;3.35;;
11064;SDS011;5585;52.530;7.320;2023-08-24T04:27:15;4.63;;;4.10;;
11064;SDS011;5585;52.530;7.320;2023-08-24T04:29:42;4.57;;;3.75;;
11064;SDS011;5585;52.530;7.320;2023-08-24T04:32:08;4.45;;;3.92;;
11064;SDS011;5585;52.530;7.320;2023-08-24T04:34:36;4.25;;;3.85;;
11064;SDS011;5585;52.530;7.320;2023-08-24T04:37:03;3.63;;;3.20;;
11064;SDS011;5585;52.530;7.320;2023-08-24T04:39:29;4.57;;;3.90;;
11064;SDS011;5585;52.530;7.320;2023-08-24T04:41:56;4.38;;;3.63;;
11064;SDS011;5585;52.530;7.320;2023-08-24T04:44:23;3.83;;;3.47;;
11064;SDS011;5585;52.530;7.320;2023-08-24T04:46:50;4.30;;;3.78;;
11064;SDS011;5585;52.530;7.320;2023-08-24T04:49:16;4.20;;;3.60;;
11064;SDS011;5585;52.530;7.320;2023-08-24T04:51:44;4.68;;;3.38;;
11064;SDS011;5585;52.530;7.320;2023-08-24T04:54:11;3.47;;;3.17;;
11064;SDS011;5585;52.530;7.320;2023-08-24T04:56:37;3.95;;;3.55;;
11064;SDS011;5585;52.530;7.320;2023-08-24T04:59:04;5.00;;;3.55;;
11064;SDS011;5585;52.530;7.320;2023-08-24T05:01:30;4.05;;;3.65;;
11064;SDS011;5585;52.530;7.320;2023-08-24T05:03:57;4.30;;;3.90;;
11064;SDS011;5585;52.530;7.320;2023-08-24T05:06:24;5.00;;;4.47;;
11064;SDS011;5585;52.530;7.320;2023-08-24T05:08:52;6.00;;;4.85;;
11064;SDS011;5585;52.530;7.320;2023-08-24T05:11:19;4.40;;;4.00;;
11064;SDS011;5585;52.530;7.320;2023-08-24T05:13:46;4.35;;;3.72;;
11064;SDS011;5585;52.530;7.320;2023-08-24T05:16:12;5.53;;;4.93;;
11064;SDS011;5585;52.530;7.320;2023-08-24T05:18:39;7.05;;;4.95;;
11064;SDS011;5585;52.530;7.320;2023-08-24T05:21:06;5.97;;;5.00;;
11064;SDS011;5585;52.530;7.320;2023-08-24T05:23:33;5.47;;;4.97;;
11064;SDS011;5585;52.530;7.320;2023-08-24T05:26:01;5.70;;;5.07;;
11064;SDS011;5585;52.530;7.320;2023-08-24T05:28:29;5.47;;;4.72;;
11064;SDS011;5585;52.530;7.320;2023-08-24T05:30:56;7.57;;;5.03;;
11064;SDS011;5585;52.530;7.320;2023-08-24T05:33:23;6.20;;;5.60;;
11064;SDS011;5585;52.530;7.320;2023-08-24T05:35:50;6.95;;;5.32;;
11064;SDS011;5585;52.530;7.320;2023-08-24T05:38:17;6.13;;;5.53;;
11064;SDS011;5585;52.530;7.320;2023-08-24T05:40:45;6.55;;;4.80;;
11064;SDS011;5585;52.530;7.320;2023-08-24T05:43:14;5.25;;;4.75;;
11064;SDS011;5585;52.530;7.320;2023-08-24T05:45:40;5.00;;;4.50;;
11064;SDS011;5585;52.530;7.320;2023-08-24T05:48:09;6.15;;;4.90;;
11064;SDS011;5585;52.530;7.320;2023-08-24T05:50:36;6.82;;;5.30;;
11064;SDS011;5585;52.530;7.320;2023-08-24T05:53:03;5.45;;;4.95;;
11064;SDS011;5585;52.530;7.320;2023-08-24T05:55:30;5.60;;;4.85;;
11064;SDS011;5585;52.530;7.320;2023-08-24T05:57:57;5.20;;;4.72;;
11064;SDS011;5585;52.530;7.320;2023-08-24T06:00:25;5.60;;;5.00;;
11064;SDS011;5585;52.530;7.320;2023-08-24T06:02:51;6.60;;;5.32;;
11064;SDS011;5585;52.530;7.320;2023-08-24T06:05:18;6.20;;;5.20;;
11064;SDS011;5585;52.530;7.320;2023-08-24T06:07:44;5.72;;;5.13;;
11064;SDS011;5585;52.530;7.320;2023-08-24T06:10:11;6.60;;;6.00;;
11064;SDS011;5585;52.530;7.320;2023-08-24T06:12:38;6.80;;;4.97;;
11064;SDS011;5585;52.530;7.320;2023-08-24T06:15:05;6.00;;;5.47;;
11064;SDS011;5585;52.530;7.320;2023-08-24T06:17:36;7.38;;;5.63;;
11064;SDS011;5585;52.530;7.320;2023-08-24T06:20:03;5.97;;;5.15;;
11064;SDS011;5585;52.530;7.320;2023-08-24T06:22:29;5.43;;;4.93;;
11064;SDS011;5585;52.530;7.320;2023-08-24T06:24:56;6.72;;;5.90;;
11064;SDS011;5585;52.530;7.320;2023-08-24T06:27:25;6.47;;;5.50;;
11064;SDS011;5585;52.530;7.320;2023-08-24T06:29:51;6.55;;;5.95;;
11064;SDS011;5585;52.530;7.320;2023-08-24T06:32:18;6.90;;;5.88;;
11064;SDS011;5585;52.530;7.320;2023-08-24T06:34:46;6.95;;;6.18;;
11064;SDS011;5585;52.530;7.320;2023-08-24T06:37:13;7.32;;;6.47;;
11064;SDS011;5585;52.530;7.320;2023-08-24T06:39:39;6.35;;;5.75;;
11064;SDS011;5585;52.530;7.320;2023-08-24T06:42:06;8.85;;;6.20;;
11064;SDS011;5585;52.530;7.320;2023-08-24T06:44:32;6.65;;;6.05;;
11064;SDS011;5585;52.530;7.320;2023-08-24T06:46:59;6.65;;;5.95;;
11064;SDS011;5585;52.530;7.320;2023-08-24T06:49:26;5.90;;;5.30;;
11064;SDS011;5585;52.530;7.320;2023-08-24T06:51:54;6.43;;;5.70;;
11064;SDS011;5585;52.530;7.320;2023-08-24T06:57:23;6.97;;;6.28;;
11064;SDS011;5585;52.530;7.320;2023-08-24T06:59:50;7.72;;;6.05;;
11064;SDS011;5585;52.530;7.320;2023-08-24T07:02:17;5.97;;;5.38;;
11064;SDS011;5585;52.530;7.320;2023-08-24T07:04:44;7.88;;;6.32;;
11064;SDS011;5585;52.530;7.320;2023-08-24T07:07:12;6.88;;;6.28;;
11064;SDS011;5585;52.530;7.320;2023-08-24T07:09:38;6.60;;;6.00;;
11064;SDS011;5585;52.530;7.320;2023-08-24T07:12:05;6.45;;;5.82;;
11064;SDS011;5585;52.530;7.320;2023-08-24T07:14:32;7.53;;;6.18;;
11064;SDS011;5585;52.530;7.320;2023-08-24T07:16:58;6.65;;;6.03;;
11064;SDS011;5585;52.530;7.320;2023-08-24T07:19:25;6.30;;;5.70;;
11064;SDS011;5585;52.530;7.320;2023-08-24T07:21:52;8.70;;;6.55;;
11064;SDS011;5585;52.530;7.320;2023-08-24T07:24:20;6.40;;;5.80;;
11064;SDS011;5585;52.530;7.320;2023-08-24T07:26:51;8.63;;;6.55;;
11064;SDS011;5585;52.530;7.320;2023-08-24T07:29:18;7.78;;;6.93;;
11064;SDS011;5585;52.530;7.320;2023-08-24T07:31:44;5.28;;;4.55;;
11064;SDS011;5585;52.530;7.320;2023-08-24T07:34:11;6.75;;;4.75;;
11064;SDS011;5585;52.530;7.320;2023-08-24T07:36:38;4.85;;;4.35;;
11064;SDS011;5585;52.530;7.320;2023-08-24T07:39:04;6.60;;;4.45;;
11064;SDS011;5585;52.530;7.320;2023-08-24T07:41:32;5.65;;;3.78;;
11064;SDS011;5585;52.530;7.320;2023-08-24T07:43:59;5.82;;;4.13;;
11064;SDS011;5585;52.530;7.320;2023-08-24T07:46:25;4.72;;;4.22;;
11064;SDS011;5585;52.530;7.320;2023-08-24T07:48:52;7.75;;;4.05;;
11064;SDS011;5585;52.530;7.320;2023-08-24T07:51:19;4.53;;;4.13;;
11064;SDS011;5585;52.530;7.320;2023-08-24T07:53:46;4.53;;;4.00;;
11064;SDS011;5585;52.530;7.320;2023-08-24T07:56:12;5.40;;;4.43;;
11064;SDS011;5585;52.530;7.320;2023-08-24T07:58:40;6.68;;;4.38;;
11064;SDS011;5585;52.530;7.320;2023-08-24T08:01:10;5.07;;;3.95;;
11064;SDS011;5585;52.530;7.320;2023-08-24T08:03:36;5.57;;;4.55;;
11064;SDS011;5585;52.530;7.320;2023-08-24T08:06:03;5.35;;;4.43;;
11064;SDS011;5585;52.530;7.320;2023-08-24T08:08:30;4.70;;;4.20;;
11064;SDS011;5585;52.530;7.320;2023-08-24T08:11:00;5.05;;;3.53;;
11064;SDS011;5585;52.530;7.320;2023-08-24T08:13:27;4.30;;;3.90;;
11064;SDS011;5585;52.530;7.320;2023-08-24T08:15:55;4.32;;;3.92;;
11064;SDS011;5585;52.530;7.320;2023-08-24T08:18:26;3.83;;;3.30;;
11064;SDS011;5585;52.530;7.320;2023-08-24T08:20:53;4.00;;;3.40;;
11064;SDS011;5585;52.530;7.320;2023-08-24T08:23:19;4.05;;;3.28;;
11064;SDS011;5585;52.530;7.320;2023-08-24T08:25:46;5.13;;;4.30;;
11064;SDS011;5585;52.530;7.320;2023-08-24T08:28:12;4.43;;;3.33;;
11064;SDS011;5585;52.530;7.320;2023-08-24T08:30:39;4.00;;;3.40;;
11064;SDS011;5585;52.530;7.320;2023-08-24T08:33:07;6.82;;;3.67;;
11064;SDS011;5585;52.530;7.320;2023-08-24T08:35:33;4.07;;;3.08;;
11064;SDS011;5585;52.530;7.320;2023-08-24T08:38:00;4.55;;;3.20;;
11064;SDS011;5585;52.530;7.320;2023-08-24T08:40:27;5.05;;;3.83;;
11064;SDS011;5585;52.530;7.320;2023-08-24T08:42:57;4.57;;;2.97;;
11064;SDS011;5585;52.530;7.320;2023-08-24T08:45:24;4.65;;;4.22;;
11064;SDS011;5585;52.530;7.320;2023-08-24T08:47:51;3.22;;;2.67;;
11064;SDS011;5585;52.530;7.320;2023-08-24T08:50:19;5.25;;;3.05;;
11064;SDS011;5585;52.530;7.320;2023-08-24T08:52:46;4.22;;;3.08;;
11064;SDS011;5585;52.530;7.320;2023-08-24T08:55:13;7.05;;;3.63;;
11064;SDS011;5585;52.530;7.320;2023-08-24T08:57:40;3.90;;;2.85;;
11064;SDS011;5585;52.530;7.320;2023-08-24T09:00:09;3.58;;;3.28;;
11064;SDS011;5585;52.530;7.320;2023-08-24T09:02:38;4.03;;;2.83;;
11064;SDS011;5585;52.530;7.320;2023-08-24T09:05:05;3.03;;;2.50;;
11064;SDS011;5585;52.530;7.320;2023-08-24T09:07:34;9.20;;;3.70;;
11064;SDS011;5585;52.530;7.320;2023-08-24T09:10:01;4.15;;;2.80;;
11064;SDS011;5585;52.530;7.320;2023-08-24T09:12:30;6.20;;;3.22;;
11064;SDS011;5585;52.530;7.320;2023-08-24T09:14:57;4.05;;;3.00;;
11064;SDS011;5585;52.530;7.320;2023-08-24T09:17:24;4.68;;;3.30;;
11064;SDS011;5585;52.530;7.320;2023-08-24T09:19:51;3.63;;;2.70;;
11064;SDS011;5585;52.530;7.320;2023-08-24T09:22:17;2.60;;;2.20;;
11064;SDS011;5585;52.530;7.320;2023-08-24T09:24:48;3.13;;;2.83;;
11064;SDS011;5585;52.530;7.320;2023-08-24T09:27:15;3.05;;;2.63;;
11064;SDS011;5585;52.530;7.320;2023-08-24T09:29:43;3.13;;;2.10;;
11064;SDS011;5585;52.530;7.320;2023-08-24T09:32:13;2.47;;;2.28;;
11064;SDS011;5585;52.530;7.320;2023-08-24T09:34:40;2.97;;;2.67;;
11064;SDS011;5585;52.530;7.320;2023-08-24T09:37:12;3.00;;;2.80;;
11064;SDS011;5585;52.530;7.320;2023-08-24T09:39:39;2.83;;;2.50;;
11064;SDS011;5585;52.530;7.320;2023-08-24T09:42:07;3.05;;;2.75;;
11064;SDS011;5585;52.530;7.320;2023-08-24T09:44:34;4.43;;;3.00;;
11064;SDS011;5585;52.530;7.320;2023-08-24T09:47:00;5.20;;;3.30;;
11064;SDS011;5585;52.530;7.320;2023-08-24T09:49:27;2.85;;;2.65;;
11064;SDS011;5585;52.530;7.320;2023-08-24T09:51:55;3.72;;;3.10;;
11064;SDS011;5585;52.530;7.320;2023-08-24T09:54:22;3.55;;;3.22;;
11064;SDS011;5585;52.530;7.320;2023-08-24T09:56:52;3.28;;;2.95;;
11064;SDS011;5585;52.530;7.320;2023-08-24T09:59:21;2.88;;;2.63;;
11064;SDS011;5585;52.530;7.320;2023-08-24T10:01:50;3.00;;;2.20;;
11064;SDS011;5585;52.530;7.320;2023-08-24T10:04:21;3.95;;;2.33;;
11064;SDS011;5585;52.530;7.320;2023-08-24T10:06:49;2.72;;;2.30;;
11064;SDS011;5585;52.530;7.320;2023-08-24T10:09:19;3.00;;;2.38;;
11064;SDS011;5585;52.530;7.320;2023-08-24T10:11:49;3.15;;;2.30;;
11064;SDS011;5585;52.530;7.320;2023-08-24T10:14:19;3.70;;;2.50;;
11064;SDS011;5585;52.530;7.320;2023-08-24T10:16:48;3.47;;;2.70;;
11064;SDS011;5585;52.530;7.320;2023-08-24T10:19:15;2.35;;;2.15;;
11064;SDS011;5585;52.530;7.320;2023-08-24T10:21:42;2.85;;;2.15;;
11064;SDS011;5585;52.530;7.320;2023-08-24T10:24:09;3.50;;;2.67;;
11064;SDS011;5585;52.530;7.320;2023-08-24T10:26:39;2.80;;;2.17;;
11064;SDS011;5585;52.530;7.320;2023-08-24T10:29:06;3.75;;;2.30;;
11064;SDS011;5585;52.530;7.320;2023-08-24T10:31:33;3.08;;;2.25;;
11064;SDS011;5585;52.530;7.320;2023-08-24T10:34:01;4.10;;;2.92;;
11064;SDS011;5585;52.530;7.320;2023-08-24T10:36:28;4.70;;;2.90;;
11064;SDS011;5585;52.530;7.320;2023-08-24T10:38:55;4.75;;;2.47;;
11064;SDS011;5585;52.530;7.320;2023-08-24T10:41:25;2.85;;;2.58;;
11064;SDS011;5585;52.530;7.320;2023-08-24T10:43:52;2.60;;;2.40;;
11064;SDS011;5585;52.530;7.320;2023-08-24T10:46:30;3.40;;;2.50;;
11064;SDS011;5585;52.530;7.320;2023-08-24T10:49:03;2.22;;;2.03;;
11064;SDS011;5585;52.530;7.320;2023-08-24T10:51:30;2.35;;;2.15;;
11064;SDS011;5585;52.530;7.320;2023-08-24T10:53:57;3.15;;;2.63;;
11064;SDS011;5585;52.530;7.320;2023-08-24T10:56:34;2.88;;;2.40;;
11064;SDS011;5585;52.530;7.320;2023-08-24T10:59:14;3.28;;;2.53;;
11064;SDS011;5585;52.530;7.320;2023-08-24T11:01:41;2.97;;;2.67;;
11064;SDS011;5585;52.530;7.320;2023-08-24T11:04:10;3.42;;;2.60;;
11064;SDS011;5585;52.530;7.320;2023-08-24T11:06:50;2.20;;;2.08;;
11064;SDS011;5585;52.530;7.320;2023-08-24T11:09:17;2.72;;;2.38;;
11064;SDS011;5585;52.530;7.320;2023-08-24T11:11:54;7.90;;;2.60;;
11064;SDS011;5585;52.530;7.320;2023-08-24T11:14:22;2.30;;;2.10;;
11064;SDS011;5585;52.530;7.320;2023-08-24T11:16:51;2.97;;;2.50;;
11064;SDS011;5585;52.530;7.320;2023-08-24T11:19:18;2.40;;;2.20;;
11064;SDS011;5585;52.530;7.320;2023-08-24T11:21:46;3.63;;;2.70;;
11064;SDS011;5585;52.530;7.320;2023-08-24T11:24:13;2.58;;;2.38;;
11064;SDS011;5585;52.530;7.320;2023-08-24T11:26:40;4.22;;;2.97;;
11064;SDS011;5585;52.530;7.320;2023-08-24T11:29:07;2.70;;;2.45;;
11064;SDS011;5585;52.530;7.320;2023-08-24T11:31:34;3.25;;;2.67;;
11064;SDS011;5585;52.530;7.320;2023-08-24T11:34:01;3.75;;;2.67;;
11064;SDS011;5585;52.530;7.320;2023-08-24T11:36:29;3.25;;;2.40;;
11064;SDS011;5585;52.530;7.320;2023-08-24T11:38:56;2.97;;;2.30;;
11064;SDS011;5585;52.530;7.320;2023-08-24T11:41:23;2.80;;;2.60;;
11064;SDS011;5585;52.530;7.320;2023-08-24T11:43:57;2.83;;;2.30;;
11064;SDS011;5585;52.530;7.320;2023-08-24T11:46:24;2.63;;;2.42;;
11064;SDS011;5585;52.530;7.320;2023-08-24T11:48:51;3.90;;;2.65;;
11064;SDS011;5585;52.530;7.320;2023-08-24T11:51:19;3.60;;;2.60;;
11064;SDS011;5585;52.530;7.320;2023-08-24T11:53:46;3.65;;;2.83;;
11064;SDS011;5585;52.530;7.320;2023-08-24T11:56:13;3.67;;;2.60;;
11064;SDS011;5585;52.530;7.320;2023-08-24T11:58:42;3.60;;;2.90;;
11064;SDS011;5585;52.530;7.320;2023-08-24T12:01:09;2.30;;;2.15;;
11064;SDS011;5585;52.530;7.320;2023-08-24T12:03:35;3.25;;;2.42;;
11064;SDS011;5585;52.530;7.320;2023-08-24T12:06:02;2.85;;;2.33;;
11064;SDS011;5585;52.530;7.320;2023-08-24T12:08:39;4.18;;;2.75;;
11064;SDS011;5585;52.530;7.320;2023-08-24T12:11:11;2.90;;;2.60;;
11064;SDS011;5585;52.530;7.320;2023-08-24T12:13:42;3.17;;;2.85;;
11064;SDS011;5585;52.530;7.320;2023-08-24T12:16:09;3.13;;;2.50;;
11064;SDS011;5585;52.530;7.320;2023-08-24T12:18:45;2.40;;;2.20;;
11064;SDS011;5585;52.530;7.320;2023-08-24T12:21:12;4.03;;;2.97;;
11064;SDS011;5585;52.530;7.320;2023-08-24T12:23:40;3.47;;;2.63;;
11064;SDS011;5585;52.530;7.320;2023-08-24T12:26:07;3.15;;;2.85;;
11064;SDS011;5585;52.530;7.320;2023-08-24T12:28:35;2.85;;;2.65;;
11064;SDS011;5585;52.530;7.320;2023-08-24T12:31:02;3.00;;;2.70;;
11064;SDS011;5585;52.530;7.320;2023-08-24T12:33:29;2.40;;;2.17;;
11064;SDS011;5585;52.530;7.320;2023-08-24T12:35:56;3.97;;;2.70;;
11064;SDS011;5585;52.530;7.320;2023-08-24T12:38:24;2.80;;;2.60;;
11064;SDS011;5585;52.530;7.320;2023-08-24T12:40:51;4.28;;;2.30;;
11064;SDS011;5585;52.530;7.320;2023-08-24T12:43:18;4.80;;;2.65;;
11064;SDS011;5585;52.530;7.320;2023-08-24T12:45:49;4.47;;;2.63;;
11064;SDS011;5585;52.530;7.320;2023-08-24T12:48:15;2.80;;;2.50;;
11064;SDS011;5585;52.530;7.320;2023-08-24T12:50:42;2.90;;;2.60;;
11064;SDS011;5585;52.530;7.320;2023-08-24T12:53:09;3.33;;;2.60;;
11064;SDS011;5585;52.530;7.320;2023-08-24T12:55:35;4.90;;;3.15;;
11064;SDS011;5585;52.530;7.320;2023-08-24T12:58:02;4.50;;;2.95;;
11064;SDS011;5585;52.530;7.320;2023-08-24T13:00:29;3.17;;;2.90;;
11064;SDS011;5585;52.530;7.320;2023-08-24T13:02:58;3.35;;;2.70;;
11064;SDS011;5585;52.530;7.320;2023-08-24T13:05:24;2.58;;;2.38;;
11064;SDS011;5585;52.530;7.320;2023-08-24T13:07:51;4.32;;;2.63;;
11064;SDS011;5585;52.530;7.320;2023-08-24T13:10:17;3.47;;;3.10;;
11064;SDS011;5585;52.530;7.320;2023-08-24T13:12:44;4.15;;;2.70;;
11064;SDS011;5585;52.530;7.320;2023-08-24T13:15:10;3.50;;;2.60;;
11064;SDS011;5585;52.530;7.320;2023-08-24T13:17:37;3.80;;;2.80;;
11064;SDS011;5585;52.530;7.320;2023-08-24T13:20:06;2.85;;;2.50;;
11064;SDS011;5585;52.530;7.320;2023-08-24T13:22:33;3.20;;;2.38;;
11064;SDS011;5585;52.530;7.320;2023-08-24T13:25:00;2.55;;;2.35;;
11064;SDS011;5585;52.530;7.320;2023-08-24T13:27:27;3.78;;;2.25;;
11064;SDS011;5585;52.530;7.320;2023-08-24T13:29:53;4.00;;;2.30;;
11064;SDS011;5585;52.530;7.320;2023-08-24T13:32:22;3.10;;;2.00;;
11064;SDS011;5585;52.530;7.320;2023-08-24T13:34:48;2.63;;;2.05;;
11064;SDS011;5585;52.530;7.320;2023-08-24T13:37:16;2.60;;;2.40;;
11064;SDS011;5585;52.530;7.320;2023-08-24T13:39:43;2.75;;;2.22;;
11064;SDS011;5585;52.530;7.320;2023-08-24T13:42:09;3.13;;;2.28;;
11064;SDS011;5585;52.530;7.320;2023-08-24T13:44:36;2.35;;;2.15;;
11064;SDS011;5585;52.530;7.320;2023-08-24T13:47:03;2.35;;;2.15;;
11064;SDS011;5585;52.530;7.320;2023-08-24T13:49:29;2.38;;;2.17;;
11064;SDS011;5585;52.530;7.320;2023-08-24T13:51:56;2.42;;;2.22;;
11064;SDS011;5585;52.530;7.320;2023-08-24T13:54:24;2.70;;;2.38;;
11064;SDS011;5585;52.530;7.320;2023-08-24T13:56:51;2.78;;;2.20;;
11064;SDS011;5585;52.530;7.320;2023-08-24T13:59:19;3.17;;;2.20;;
11064;SDS011;5585;52.530;7.320;2023-08-24T14:01:46;2.65;;;2.45;;
11064;SDS011;5585;52.530;7.320;2023-08-24T14:04:13;3.20;;;2.70;;
11064;SDS011;5585;52.530;7.320;2023-08-24T14:09:44;2.33;;;2.13;;
11064;SDS011;5585;52.530;7.320;2023-08-24T14:12:10;3.30;;;2.63;;
11064;SDS011;5585;52.530;7.320;2023-08-24T14:14:37;2.97;;;2.50;;
11064;SDS011;5585;52.530;7.320;2023-08-24T14:17:03;2.58;;;2.30;;
11064;SDS011;5585;52.530;7.320;2023-08-24T14:19:30;3.00;;;2.50;;
11064;SDS011;5585;52.530;7.320;2023-08-24T14:21:56;3.28;;;2.60;;
11064;SDS011;5585;52.530;7.320;2023-08-24T14:24:23;3.13;;;2.45;;
11064;SDS011;5585;52.530;7.320;2023-08-24T14:26:51;3.63;;;2.70;;
11064;SDS011;5585;52.530;7.320;2023-08-24T14:29:19;3.35;;;2.58;;
11064;SDS011;5585;52.530;7.320;2023-08-24T14:31:45;2.53;;;2.30;;
11064;SDS011;5585;52.530;7.320;2023-08-24T14:34:15;2.20;;;2.03;;
11064;SDS011;5585;52.530;7.320;2023-08-24T14:36:59;2.30;;;2.10;;
11064;SDS011;5585;52.530;7.320;2023-08-24T14:39:25;2.47;;;2.05;;
11064;SDS011;5585;52.530;7.320;2023-08-24T14:41:53;2.13;;;2.00;;
11064;SDS011;5585;52.530;7.320;2023-08-24T14:44:20;2.50;;;2.30;;
11064;SDS011;5585;52.530;7.320;2023-08-24T14:46:46;3.92;;;2.30;;
11064;SDS011;5585;52.530;7.320;2023-08-24T14:49:13;2.78;;;2.35;;
11064;SDS011;5585;52.530;7.320;2023-08-24T14:51:43;2.47;;;2.22;;
11064;SDS011;5585;52.530;7.320;2023-08-24T14:54:10;3.55;;;2.42;;
11064;SDS011;5585;52.530;7.320;2023-08-24T14:56:39;2.53;;;2.33;;
11064;SDS011;5585;52.530;7.320;2023-08-24T14:59:07;2.75;;;2.55;;
11064;SDS011;5585;52.530;7.320;2023-08-24T15:01:33;4.18;;;2.67;;
11064;SDS011;5585;52.530;7.320;2023-08-24T15:04:00;2.80;;;2.30;;
11064;SDS011;5585;52.530;7.320;2023-08-24T15:06:26;2.88;;;2.58;;
11064;SDS011;5585;52.530;7.320;2023-08-24T15:08:53;3.25;;;2.53;;
11064;SDS011;5585;52.530;7.320;2023-08-24T15:11:19;2.58;;;2.38;;